Time;durP1;ratioP1;P1;durP2;ratioP2;P2;SDS_P1;SDS_P2;PMS_P1;PMS_P2;Temp;Humidity;BMP_temperature;BMP_pressure;BME280_temperature;BME280_humidity;BME280_pressure;Samples;Min_cycle;Max_cycle;Signal;HPM_P1;HPM_P2
2023/07/18 00:03:21;;;;;;;;;;;23.40;53.80;;;;;;10295285;28;90069;-61
2023/07/18 00:08:23;;;;;;;;;;;23.40;53.80;;;;;;10294518;28;88325;-61
2023/07/18 00:13:25;;;;;;;;;;;23.40;53.70;;;;;;10294325;28;89209;-61
2023/07/18 00:18:27;;;;;;;;;;;23.40;53.70;;;;;;10293828;28;89424;-61
2023/07/18 00:23:30;;;;;;;;;;;23.40;53.70;;;;;;10293339;28;90966;-62
2023/07/18 00:28:32;;;;;;;;;;;23.30;53.80;;;;;;10276200;28;88978;-61
2023/07/18 00:33:34;;;;;;;;;;;23.30;53.90;;;;;;10293245;28;89128;-61
2023/07/18 00:38:36;;;;;;;;;;;23.30;53.90;;;;;;10293879;28;89086;-61
2023/07/18 00:43:38;;;;;;;;;;;23.20;53.90;;;;;;10293403;28;89877;-61
2023/07/18 00:48:40;;;;;;;;;;;23.20;53.90;;;;;;10293115;28;89699;-66
2023/07/18 00:53:42;;;;;;;;;;;23.20;54.00;;;;;;10292789;28;89240;-65
2023/07/18 00:58:44;;;;;;;;;;;23.20;53.90;;;;;;10276575;28;89105;-66
2023/07/18 01:03:46;;;;;;;;;;;23.20;54.00;;;;;;10293104;28;89123;-61
2023/07/18 01:08:48;;;;;;;;;;;23.20;53.90;;;;;;10292310;28;89653;-61
2023/07/18 01:13:50;;;;;;;;;;;23.20;54.00;;;;;;10273863;28;90769;-61
2023/07/18 01:18:53;;;;;;;;;;;23.20;54.00;;;;;;10292290;28;89196;-61
2023/07/18 01:23:55;;;;;;;;;;;23.20;53.90;;;;;;10290974;28;89704;-61
2023/07/18 01:28:57;;;;;;;;;;;23.20;53.90;;;;;;10292322;28;89076;-61
2023/07/18 01:33:59;;;;;;;;;;;23.20;53.90;;;;;;10292466;28;89062;-61
2023/07/18 01:39:01;;;;;;;;;;;23.30;53.90;;;;;;10290966;28;89094;-61
2023/07/18 01:44:02;;;;;;;;;;;23.20;53.90;;;;;;10273974;28;90280;-66
2023/07/18 01:49:04;;;;;;;;;;;23.20;53.80;;;;;;10292222;28;89315;-66
2023/07/18 01:54:07;;;;;;;;;;;23.30;53.90;;;;;;10290546;28;88052;-66
2023/07/18 01:59:08;;;;;;;;;;;23.20;53.80;;;;;;10291968;28;89705;-61
2023/07/18 02:04:10;;;;;;;;;;;23.20;53.90;;;;;;10290786;28;90021;-65
2023/07/18 02:09:12;;;;;;;;;;;23.20;53.80;;;;;;10273562;28;90215;-66
2023/07/18 02:14:16;;;;;;;;;;;23.20;53.80;;;;;;10291409;28;88272;-65
2023/07/18 02:19:17;;;;;;;;;;;23.20;53.80;;;;;;10290424;28;89297;-65
2023/07/18 02:24:19;;;;;;;;;;;23.20;53.80;;;;;;10291008;28;89019;-65
2023/07/18 02:29:21;;;;;;;;;;;23.20;53.80;;;;;;10290643;28;88307;-62
2023/07/18 02:34:25;;;;;;;;;;;23.20;53.80;;;;;;10290974;28;90107;-61
2023/07/18 02:39:30;;;;;;;;;;;23.20;53.80;;;;;;10290745;28;88616;-62
2023/07/18 02:44:32;;;;;;;;;;;23.20;53.90;;;;;;10290849;28;90273;-61
2023/07/18 02:49:34;;;;;;;;;;;23.20;53.80;;;;;;10291141;28;89433;-66
2023/07/18 02:54:35;;;;;;;;;;;23.20;53.80;;;;;;10293747;28;90788;-66
2023/07/18 02:59:37;;;;;;;;;;;23.20;53.80;;;;;;10296141;28;89085;-66
2023/07/18 03:04:39;;;;;;;;;;;23.20;53.80;;;;;;10297465;28;90355;-66
2023/07/18 03:09:41;;;;;;;;;;;23.20;53.80;;;;;;10296142;28;90107;-65
2023/07/18 03:14:44;;;;;;;;;;;23.20;53.80;;;;;;10296815;28;89997;-61
2023/07/18 03:19:45;;;;;;;;;;;23.20;53.70;;;;;;10296763;28;90038;-62
2023/07/18 03:24:48;;;;;;;;;;;23.20;53.70;;;;;;10278073;28;90976;-61
2023/07/18 03:29:50;;;;;;;;;;;23.20;53.70;;;;;;10297056;28;89510;-61
2023/07/18 03:34:51;;;;;;;;;;;23.20;53.70;;;;;;10295441;28;89650;-61
2023/07/18 03:39:54;;;;;;;;;;;23.20;53.60;;;;;;10294902;28;89321;-61
2023/07/18 03:44:55;;;;;;;;;;;23.20;53.60;;;;;;10294488;28;89581;-61
2023/07/18 03:49:57;;;;;;;;;;;23.20;53.60;;;;;;10295846;28;90040;-61
2023/07/18 03:54:58;;;;;;;;;;;23.20;53.60;;;;;;10295453;28;89284;-66
2023/07/18 04:00:06;;;;;;;;;;;23.30;53.60;;;;;;10294331;28;89119;-66
2023/07/18 04:05:08;;;;;;;;;;;23.20;53.50;;;;;;10277243;28;89835;-65
2023/07/18 04:10:13;;;;;;;;;;;23.20;53.50;;;;;;10294561;28;88248;-66
2023/07/18 04:15:15;;;;;;;;;;;23.20;53.40;;;;;;10295130;28;89228;-66
2023/07/18 04:20:19;;;;;;;;;;;23.20;53.50;;;;;;10295058;28;89229;-66
2023/07/18 04:25:21;;;;;;;;;;;23.20;53.40;;;;;;10294025;28;89043;-66
2023/07/18 04:30:23;;;;;;;;;;;23.20;53.40;;;;;;10294472;28;90068;-66
2023/07/18 04:35:25;;;;;;;;;;;23.20;53.30;;;;;;10292666;28;90294;-66
2023/07/18 04:40:26;;;;;;;;;;;23.20;53.40;;;;;;10294612;28;90037;-66
2023/07/18 04:50:58;;;;;;;;;;;23.20;53.20;;;;;;10575632;22;90560;-62
2023/07/18 04:56:00;;;;;;;;;;;23.20;53.30;;;;;;10334579;28;89593;-66
2023/07/18 05:01:02;;;;;;;;;;;23.20;53.20;;;;;;10316220;28;90030;-66
2023/07/18 05:06:04;;;;;;;;;;;23.20;53.20;;;;;;10333753;28;88942;-65
2023/07/18 05:11:06;;;;;;;;;;;23.10;53.10;;;;;;10333464;28;87595;-67
2023/07/18 05:16:08;;;;;;;;;;;23.10;53.10;;;;;;10333798;28;90005;-66
2023/07/18 05:21:10;;;;;;;;;;;23.10;53.20;;;;;;10333028;28;89117;-66
2023/07/18 05:26:12;;;;;;;;;;;23.10;53.20;;;;;;10315261;28;88884;-62
2023/07/18 05:31:14;;;;;;;;;;;23.10;53.30;;;;;;10333971;28;89468;-66
2023/07/18 05:36:16;;;;;;;;;;;23.10;54.20;;;;;;10313091;28;89805;-68
2023/07/18 05:41:17;;;;;;;;;;;23.00;53.90;;;;;;10332319;28;90132;-60
2023/07/18 05:46:20;;;;;;;;;;;23.00;55.40;;;;;;10329241;28;89020;-61
2023/07/18 05:51:21;;;;;;;;;;;23.10;55.60;;;;;;10347580;28;89986;-66
2023/07/18 05:56:23;;;;;;;;;;;23.10;55.70;;;;;;10369121;28;89011;-67
2023/07/18 06:01:25;;;;;;;;;;;23.00;57.00;;;;;;10352370;28;89342;-68
2023/07/18 06:06:27;;;;;;;;;;;23.00;56.20;;;;;;10351462;28;88434;-66
2023/07/18 06:11:28;;;;;;;;;;;23.00;55.90;;;;;;10344267;28;90046;-66
2023/07/18 06:16:30;;;;;;;;;;;23.00;55.80;;;;;;10329490;28;90741;-68
2023/07/18 06:21:32;;;;;;;;;;;23.00;55.80;;;;;;10329981;28;88998;-61
2023/07/18 06:26:34;;;;;;;;;;;23.00;55.50;;;;;;10314586;28;89201;-60
2023/07/18 06:31:36;;;;;;;;;;;23.10;56.10;;;;;;10346853;28;90153;-61
2023/07/18 06:36:37;;;;;;;;;;;23.10;57.20;;;;;;10369095;28;89175;-61
2023/07/18 06:41:39;;;;;;;;;;;23.20;56.30;;;;;;10376156;28;89092;-61
2023/07/18 06:46:41;;;;;;;;;;;23.20;56.60;;;;;;10357671;28;89362;-63
2023/07/18 06:51:44;;;;;;;;;;;23.20;55.90;;;;;;10338955;28;87895;-61
2023/07/18 06:56:46;;;;;;;;;;;23.20;56.90;;;;;;10338588;28;88445;-61
2023/07/18 07:01:48;;;;;;;;;;;23.30;55.90;;;;;;10339566;28;89866;-61
2023/07/18 07:06:50;;;;;;;;;;;23.30;55.70;;;;;;10334904;28;89719;-62
2023/07/18 07:11:51;;;;;;;;;;;23.20;55.80;;;;;;10340392;28;90276;-62
2023/07/18 07:16:53;;;;;;;;;;;23.20;55.70;;;;;;10318870;28;89694;-62
2023/07/18 07:21:55;;;;;;;;;;;23.20;55.50;;;;;;10335767;28;89251;-60
2023/07/18 07:26:57;;;;;;;;;;;23.20;55.70;;;;;;10348424;28;88804;-63
2023/07/18 07:31:59;;;;;;;;;;;23.20;57.30;;;;;;10373971;28;89767;-62
2023/07/18 07:37:01;;;;;;;;;;;23.20;56.80;;;;;;10357574;28;90247;-62
2023/07/18 07:42:03;;;;;;;;;;;23.20;56.80;;;;;;10373937;28;88711;-63
2023/07/18 07:47:05;;;;;;;;;;;23.20;56.80;;;;;;10373365;28;90127;-62
2023/07/18 07:52:07;;;;;;;;;;;23.20;56.70;;;;;;10375632;28;88359;-62
2023/07/18 07:57:08;;;;;;;;;;;23.20;56.70;;;;;;10375806;28;90470;-62
2023/07/18 08:02:12;;;;;;;;;;;23.20;56.60;;;;;;10360348;28;91909;-62
2023/07/18 08:07:15;;;;;;;;;;;23.20;56.60;;;;;;10377666;28;90613;-62
2023/07/18 08:12:18;;;;;;;;;;;23.20;56.40;;;;;;10376577;28;89221;-62
2023/07/18 08:17:20;;;;;;;;;;;23.20;56.40;;;;;;10377039;28;88583;-63
2023/07/18 08:22:22;;;;;;;;;;;23.20;56.40;;;;;;10376635;28;89165;-62
2023/07/18 08:27:23;;;;;;;;;;;23.20;56.40;;;;;;10376597;28;90092;-63
2023/07/18 08:32:25;;;;;;;;;;;23.20;57.30;;;;;;10358804;28;88358;-63
2023/07/18 08:37:30;;;;;;;;;;;23.20;56.40;;;;;;10375950;28;89007;-63
2023/07/18 08:42:33;;;;;;;;;;;23.20;56.30;;;;;;10375936;28;89352;-63
2023/07/18 08:47:36;;;;;;;;;;;23.20;56.20;;;;;;10374168;28;90224;-62
2023/07/18 08:52:38;;;;;;;;;;;23.30;56.30;;;;;;10357905;28;90066;-63
2023/07/18 08:57:41;;;;;;;;;;;23.30;56.20;;;;;;10376125;28;90065;-62
2023/07/18 09:02:43;;;;;;;;;;;23.30;56.10;;;;;;10374459;28;89085;-62
2023/07/18 09:07:45;;;;;;;;;;;23.30;56.00;;;;;;10374109;28;88875;-63
2023/07/18 09:12:47;;;;;;;;;;;23.30;56.00;;;;;;10373975;28;89222;-62
2023/07/18 09:17:59;;;;;;;;;;;23.30;55.90;;;;;;10357590;28;89429;-63
2023/07/18 09:23:03;;;;;;;;;;;23.30;55.90;;;;;;10374141;28;108794;-62
2023/07/18 09:28:08;;;;;;;;;;;23.30;55.90;;;;;;10374621;28;90102;-63
2023/07/18 09:33:10;;;;;;;;;;;23.30;55.90;;;;;;10356649;28;88941;-63
2023/07/18 09:38:11;;;;;;;;;;;23.40;55.90;;;;;;10373145;28;90223;-62
2023/07/18 09:43:15;;;;;;;;;;;23.40;55.80;;;;;;10373532;28;88929;-63
2023/07/18 09:48:17;;;;;;;;;;;23.40;55.80;;;;;;10373746;28;89394;-63
2023/07/18 09:53:21;;;;;;;;;;;23.40;55.70;;;;;;10356805;28;89965;-62
2023/07/18 09:58:25;;;;;;;;;;;23.40;55.70;;;;;;10373672;28;89100;-62
2023/07/18 10:03:31;;;;;;;;;;;23.40;55.70;;;;;;10377574;28;89087;-62
2023/07/18 10:08:33;;;;;;;;;;;23.50;55.80;;;;;;10380854;28;89249;-62
2023/07/18 10:13:41;;;;;;;;;;;23.50;55.60;;;;;;10381013;28;88464;-63
2023/07/18 10:18:45;;;;;;;;;;;23.50;56.50;;;;;;10382495;28;88798;-63
2023/07/18 10:23:46;;;;;;;;;;;23.60;55.40;;;;;;10363201;28;89257;-63
2023/07/18 10:28:48;;;;;;;;;;;23.70;55.30;;;;;;10380316;28;90821;-63
2023/07/18 10:34:06;;;;;;;;;;;23.70;55.10;;;;;;10362285;28;89272;-63
2023/07/18 10:39:14;;;;;;;;;;;23.70;55.10;;;;;;10380164;28;89188;-62
2023/07/18 10:44:16;;;;;;;;;;;23.80;55.10;;;;;;10379576;28;90019;-62
2023/07/18 10:49:23;;;;;;;;;;;23.80;55.00;;;;;;10379268;28;88484;-63
2023/07/18 10:54:25;;;;;;;;;;;23.80;54.90;;;;;;10378765;28;89080;-63
2023/07/18 10:59:27;;;;;;;;;;;23.80;54.80;;;;;;10379271;28;89220;-63
2023/07/18 11:04:28;;;;;;;;;;;23.80;54.90;;;;;;10362847;28;88370;-63
2023/07/18 11:09:34;;;;;;;;;;;23.80;54.80;;;;;;10361708;28;90045;-63
2023/07/18 11:14:39;;;;;;;;;;;23.80;54.80;;;;;;10378414;28;90139;-63
2023/07/18 11:19:41;;;;;;;;;;;23.80;54.70;;;;;;10361500;28;90854;-63
2023/07/18 11:24:43;;;;;;;;;;;23.80;54.70;;;;;;10337345;28;90193;-63
2023/07/18 11:30:08;;;;;;;;;;;23.80;54.80;;;;;;10319877;28;90192;-68
2023/07/18 11:35:11;;;;;;;;;;;23.80;54.80;;;;;;10337506;28;89167;-68
2023/07/18 11:40:25;;;;;;;;;;;23.80;54.90;;;;;;10337398;28;89322;-68
2023/07/18 11:45:28;;;;;;;;;;;23.80;54.80;;;;;;10336265;28;90114;-63
2023/07/18 11:50:29;;;;;;;;;;;23.80;54.70;;;;;;10336697;28;90349;-63
2023/07/18 11:55:31;;;;;;;;;;;23.80;54.60;;;;;;10302808;28;88172;-63
2023/07/18 12:00:36;;;;;;;;;;;23.80;54.80;;;;;;10337919;28;90582;-62
2023/07/18 12:05:38;;;;;;;;;;;23.80;54.70;;;;;;10337005;28;90170;-62
2023/07/18 12:10:40;;;;;;;;;;;23.80;54.70;;;;;;10336158;28;90758;-63
2023/07/18 12:15:44;;;;;;;;;;;23.80;54.70;;;;;;10335711;28;89425;-63
2023/07/18 12:20:46;;;;;;;;;;;23.80;54.60;;;;;;10336285;28;90124;-62
2023/07/18 12:25:48;;;;;;;;;;;23.90;54.70;;;;;;10334801;28;90331;-63
2023/07/18 12:30:50;;;;;;;;;;;23.90;54.70;;;;;;10317869;28;90121;-63
2023/07/18 12:35:51;;;;;;;;;;;23.90;54.60;;;;;;10335070;28;89076;-63
2023/07/18 12:40:53;;;;;;;;;;;23.80;54.60;;;;;;10316993;28;89603;-63
2023/07/18 12:45:55;;;;;;;;;;;23.80;54.60;;;;;;10336006;28;88064;-63
2023/07/18 12:50:57;;;;;;;;;;;23.90;54.60;;;;;;10316512;28;90427;-63
2023/07/18 12:55:59;;;;;;;;;;;23.90;54.60;;;;;;10335961;28;90376;-62
2023/07/18 13:01:01;;;;;;;;;;;23.90;54.50;;;;;;10316171;28;91268;-62
2023/07/18 13:06:06;;;;;;;;;;;23.90;54.50;;;;;;10333558;28;88235;-62
2023/07/18 13:11:08;;;;;;;;;;;23.90;54.50;;;;;;10316159;28;89820;-63
2023/07/18 13:16:10;;;;;;;;;;;23.90;54.50;;;;;;10334006;28;90037;-63
2023/07/18 13:21:12;;;;;;;;;;;23.90;54.50;;;;;;10333950;28;88134;-63
2023/07/18 13:26:15;;;;;;;;;;;23.90;54.50;;;;;;10333522;28;90385;-62
2023/07/18 13:31:18;;;;;;;;;;;23.90;54.40;;;;;;10333258;28;90387;-63
2023/07/18 13:36:20;;;;;;;;;;;23.90;54.50;;;;;;10316026;28;89292;-63
2023/07/18 13:41:22;;;;;;;;;;;23.90;54.40;;;;;;10315264;28;89401;-63
2023/07/18 13:46:25;;;;;;;;;;;23.90;54.50;;;;;;10332637;28;88115;-62
2023/07/18 13:51:29;;;;;;;;;;;23.90;54.50;;;;;;10331165;28;90767;-63
2023/07/18 13:56:31;;;;;;;;;;;23.90;54.40;;;;;;10314647;28;89025;-62
2023/07/18 14:01:32;;;;;;;;;;;23.90;54.50;;;;;;10332408;28;89574;-62
2023/07/18 14:06:34;;;;;;;;;;;23.90;54.40;;;;;;10332660;28;89995;-62
2023/07/18 14:11:36;;;;;;;;;;;23.90;54.40;;;;;;10332100;28;89227;-62
2023/07/18 14:16:38;;;;;;;;;;;23.90;54.50;;;;;;10331751;28;88487;-62
2023/07/18 14:21:40;;;;;;;;;;;23.90;54.40;;;;;;10332615;28;90010;-63
2023/07/18 14:26:43;;;;;;;;;;;23.90;54.40;;;;;;10333280;28;89493;-63
2023/07/18 14:31:45;;;;;;;;;;;23.90;54.50;;;;;;10332620;28;90268;-68
2023/07/18 14:36:47;;;;;;;;;;;23.90;54.40;;;;;;10331270;28;89421;-67
2023/07/18 14:41:49;;;;;;;;;;;23.90;54.40;;;;;;10331445;28;90719;-68
2023/07/18 14:46:51;;;;;;;;;;;23.90;54.40;;;;;;10330626;28;89285;-68
2023/07/18 14:51:53;;;;;;;;;;;23.90;54.50;;;;;;10337402;28;89162;-68
2023/07/18 14:56:54;;;;;;;;;;;23.90;54.40;;;;;;10320404;28;89192;-62
2023/07/18 15:01:56;;;;;;;;;;;23.90;54.40;;;;;;10338727;28;90062;-63
2023/07/18 15:06:58;;;;;;;;;;;23.90;54.40;;;;;;10338122;28;89863;-62
2023/07/18 15:12:00;;;;;;;;;;;23.90;54.40;;;;;;10338231;28;89108;-65
2023/07/18 15:17:02;;;;;;;;;;;23.90;54.40;;;;;;10338361;28;89720;-61
2023/07/18 15:22:03;;;;;;;;;;;23.90;54.50;;;;;;10337493;28;89121;-62
2023/07/18 15:27:05;;;;;;;;;;;24.00;53.80;;;;;;10337130;28;89060;-63
2023/07/18 15:32:07;;;;;;;;;;;24.00;53.10;;;;;;10336942;28;90800;-62
2023/07/18 15:37:09;;;;;;;;;;;23.90;51.80;;;;;;10336317;28;89458;-62
2023/07/18 15:42:11;;;;;;;;;;;23.90;51.30;;;;;;10336412;28;89157;-62
2023/07/18 15:47:12;;;;;;;;;;;23.90;51.90;;;;;;10335535;28;89642;-61
2023/07/18 15:52:14;;;;;;;;;;;23.90;53.10;;;;;;10334637;28;90211;-61
2023/07/18 15:57:16;;;;;;;;;;;24.00;52.00;;;;;;10318111;28;88441;-62
2023/07/18 16:02:18;;;;;;;;;;;24.00;51.70;;;;;;10333787;28;89744;-62
2023/07/18 16:07:20;;;;;;;;;;;24.00;51.70;;;;;;10318416;28;88088;-65
2023/07/18 16:12:22;;;;;;;;;;;24.10;51.20;;;;;;10318044;28;90266;-67
2023/07/18 16:17:23;;;;;;;;;;;24.10;50.70;;;;;;10335673;28;89114;-68
2023/07/18 16:22:25;;;;;;;;;;;24.10;49.80;;;;;;10334447;28;90819;-68
2023/07/18 16:27:27;;;;;;;;;;;24.10;50.20;;;;;;10335855;28;89010;-67
2023/07/18 16:32:29;;;;;;;;;;;24.10;49.20;;;;;;10316872;28;89189;-67
2023/07/18 16:37:34;;;;;;;;;;;24.10;48.60;;;;;;10335239;28;90065;-64
2023/07/18 16:42:36;;;;;;;;;;;24.10;51.40;;;;;;10317196;28;89103;-65
2023/07/18 16:47:38;;;;;;;;;;;24.20;50.00;;;;;;10334570;28;89274;-65
2023/07/18 16:52:40;;;;;;;;;;;24.20;49.10;;;;;;10334462;28;90329;-66
2023/07/18 16:57:42;;;;;;;;;;;24.20;47.80;;;;;;10334904;28;88717;-65
2023/07/18 17:02:44;;;;;;;;;;;24.20;48.00;;;;;;10334064;28;90080;-65
2023/07/18 17:07:45;;;;;;;;;;;24.20;48.50;;;;;;10333183;28;90450;-65
2023/07/18 17:12:47;;;;;;;;;;;24.10;49.00;;;;;;10331470;28;90018;-65
2023/07/18 17:17:49;;;;;;;;;;;24.10;49.10;;;;;;10334271;28;89067;-61
2023/07/18 17:22:51;;;;;;;;;;;24.10;49.20;;;;;;10332882;28;89376;-61
2023/07/18 17:27:53;;;;;;;;;;;24.00;49.70;;;;;;10333283;28;90106;-67
2023/07/18 17:32:55;;;;;;;;;;;24.00;49.70;;;;;;10315550;28;90558;-66
2023/07/18 17:37:57;;;;;;;;;;;23.80;49.30;;;;;;10332969;28;89136;-66
2023/07/18 17:43:00;;;;;;;;;;;23.80;49.70;;;;;;10314740;28;89640;-62
2023/07/18 17:48:03;;;;;;;;;;;23.80;50.00;;;;;;10333113;28;87794;-62
2023/07/18 17:53:06;;;;;;;;;;;23.80;50.10;;;;;;10331768;28;89039;-66
2023/07/18 17:58:07;;;;;;;;;;;23.70;50.40;;;;;;10332153;28;89278;-67
2023/07/18 18:03:09;;;;;;;;;;;23.70;50.80;;;;;;10331736;28;90682;-62
2023/07/18 18:08:13;;;;;;;;;;;23.70;50.90;;;;;;10330560;28;89014;-62
2023/07/18 18:13:15;;;;;;;;;;;23.70;51.10;;;;;;10331949;28;88404;-62
2023/07/18 18:18:17;;;;;;;;;;;23.60;51.20;;;;;;10332303;28;90125;-61
2023/07/18 18:23:19;;;;;;;;;;;23.70;51.50;;;;;;10331529;28;89124;-62
2023/07/18 18:28:39;;;;;;;;;;;23.70;51.60;;;;;;10323526;28;88877;-62
2023/07/18 18:33:41;;;;;;;;;;;23.70;51.70;;;;;;10321162;28;88711;-62
2023/07/18 18:38:43;;;;;;;;;;;23.70;51.90;;;;;;10340680;28;89437;-64
2023/07/18 18:43:45;;;;;;;;;;;23.70;52.10;;;;;;10320113;28;89438;-62
2023/07/18 18:48:47;;;;;;;;;;;23.70;52.10;;;;;;10337600;28;90046;-63
2023/07/18 18:53:49;;;;;;;;;;;23.70;53.30;;;;;;10318965;28;89992;-63
2023/07/18 18:58:51;;;;;;;;;;;23.70;52.30;;;;;;10320613;28;89276;-62
2023/07/18 19:03:52;;;;;;;;;;;23.70;52.40;;;;;;10338289;28;89033;-68
2023/07/18 19:08:54;;;;;;;;;;;23.70;52.50;;;;;;10320067;28;89461;-68
2023/07/18 19:13:58;;;;;;;;;;;23.70;52.60;;;;;;10336846;28;89166;-63
2023/07/18 19:19:02;;;;;;;;;;;23.70;52.70;;;;;;10336530;28;89187;-68
2023/07/18 19:24:04;;;;;;;;;;;23.70;52.80;;;;;;10338000;28;89343;-68
2023/07/18 19:29:06;;;;;;;;;;;23.70;52.90;;;;;;10339112;28;88432;-61
2023/07/18 19:34:08;;;;;;;;;;;23.70;53.00;;;;;;10336367;28;90464;-62
2023/07/18 19:39:10;;;;;;;;;;;23.70;53.00;;;;;;10337199;28;89161;-62
2023/07/18 19:44:11;;;;;;;;;;;23.70;53.10;;;;;;10335749;28;89055;-62
2023/07/18 19:49:13;;;;;;;;;;;23.70;53.20;;;;;;10319545;28;90835;-62
2023/07/18 19:54:15;;;;;;;;;;;23.70;53.60;;;;;;10317569;28;89221;-62
2023/07/18 19:59:17;;;;;;;;;;;23.70;54.00;;;;;;10335925;28;89164;-62
2023/07/18 20:04:19;;;;;;;;;;;23.80;54.40;;;;;;10317599;28;89097;-62
2023/07/18 20:09:21;;;;;;;;;;;23.80;54.70;;;;;;10318052;28;89127;-62
2023/07/18 20:14:23;;;;;;;;;;;23.80;54.90;;;;;;10335947;28;90020;-62
2023/07/18 20:19:26;;;;;;;;;;;23.80;55.20;;;;;;10335705;28;88670;-63
2023/07/18 20:24:28;;;;;;;;;;;23.90;55.40;;;;;;10335555;28;89122;-62
2023/07/18 20:29:30;;;;;;;;;;;23.90;55.40;;;;;;10317375;28;90272;-62
2023/07/18 20:34:32;;;;;;;;;;;23.90;55.40;;;;;;10335159;28;90811;-62
2023/07/18 20:39:35;;;;;;;;;;;23.80;55.60;;;;;;10336444;28;89540;-62
2023/07/18 20:44:36;;;;;;;;;;;23.80;55.50;;;;;;10333349;28;90121;-62
2023/07/18 20:49:38;;;;;;;;;;;23.80;55.60;;;;;;10334111;28;89763;-62
2023/07/18 20:54:40;;;;;;;;;;;23.80;55.60;;;;;;10334338;28;89464;-62
2023/07/18 20:59:42;;;;;;;;;;;23.70;55.70;;;;;;10334196;28;88232;-62
2023/07/18 21:04:44;;;;;;;;;;;23.80;55.70;;;;;;10333457;28;89170;-62
2023/07/18 21:09:46;;;;;;;;;;;23.80;55.90;;;;;;10334683;28;88195;-62
2023/07/18 21:14:48;;;;;;;;;;;23.80;56.00;;;;;;10334560;28;89607;-62
2023/07/18 21:19:50;;;;;;;;;;;23.70;56.00;;;;;;10315238;28;89117;-61
2023/07/18 21:24:52;;;;;;;;;;;23.70;56.10;;;;;;10333290;28;90746;-67
2023/07/18 21:29:54;;;;;;;;;;;23.70;56.10;;;;;;10332724;28;89284;-67
2023/07/18 21:34:56;;;;;;;;;;;23.70;56.00;;;;;;10333424;28;89222;-62
2023/07/18 21:39:59;;;;;;;;;;;23.70;56.10;;;;;;10332819;28;89506;-62
2023/07/18 21:45:01;;;;;;;;;;;23.70;56.20;;;;;;10315552;28;89011;-62
2023/07/18 21:50:03;;;;;;;;;;;23.70;56.20;;;;;;10332940;28;89622;-62
2023/07/18 21:55:05;;;;;;;;;;;23.70;56.20;;;;;;10328061;28;93552;-62
2023/07/18 22:00:08;;;;;;;;;;;23.70;56.20;;;;;;10334322;28;93870;-62
2023/07/18 22:05:10;;;;;;;;;;;23.70;56.20;;;;;;10335973;28;95782;-62
2023/07/18 22:10:13;;;;;;;;;;;23.70;56.10;;;;;;10335246;28;94987;-65
2023/07/18 22:15:15;;;;;;;;;;;23.70;56.20;;;;;;10315534;28;97007;-67
2023/07/18 22:20:16;;;;;;;;;;;23.70;57.10;;;;;;10334920;28;93557;-66
2023/07/18 22:25:19;;;;;;;;;;;23.70;56.10;;;;;;10337019;28;93213;-65
2023/07/18 22:30:21;;;;;;;;;;;23.70;56.10;;;;;;10335402;28;94472;-62
2023/07/18 22:35:24;;;;;;;;;;;23.70;56.20;;;;;;10315998;28;93586;-62
2023/07/18 22:40:26;;;;;;;;;;;23.70;56.20;;;;;;10334286;28;94486;-63
2023/07/18 22:45:28;;;;;;;;;;;23.70;56.10;;;;;;10333075;28;93737;-66
2023/07/18 22:50:30;;;;;;;;;;;23.70;56.30;;;;;;10314782;28;93849;-62
2023/07/18 22:55:31;;;;;;;;;;;23.70;56.30;;;;;;10314890;28;93014;-62
2023/07/18 23:00:33;;;;;;;;;;;23.70;56.20;;;;;;10333442;28;94594;-62
2023/07/18 23:05:35;;;;;;;;;;;23.70;56.30;;;;;;10330094;28;96795;-62
2023/07/18 23:10:36;;;;;;;;;;;23.70;56.30;;;;;;10332151;28;93638;-62
2023/07/18 23:15:38;;;;;;;;;;;23.70;56.20;;;;;;10333264;28;94656;-61
2023/07/18 23:20:40;;;;;;;;;;;23.70;56.30;;;;;;10332704;28;93527;-62
2023/07/18 23:25:42;;;;;;;;;;;23.70;56.30;;;;;;10332491;28;94679;-62
2023/07/18 23:30:44;;;;;;;;;;;23.70;56.30;;;;;;10332327;28;93954;-62
2023/07/18 23:35:47;;;;;;;;;;;23.70;56.40;;;;;;10332727;28;93354;-62
2023/07/18 23:40:49;;;;;;;;;;;23.70;56.40;;;;;;10333121;28;93743;-61
2023/07/18 23:45:51;;;;;;;;;;;23.70;56.30;;;;;;10331914;28;94626;-62
2023/07/18 23:50:52;;;;;;;;;;;23.70;56.40;;;;;;10289134;28;93498;-62
2023/07/18 23:55:55;;;;;;;;;;;23.70;56.30;;;;;;10289237;28;97024;-62
